createdAt,value
2019-02-26T00:00:58.206Z,4.89
2019-02-26T00:02:00.397Z,4.88
2019-02-26T00:03:02.382Z,4.89
2019-02-26T00:03:44.701Z,4.88
2019-02-26T00:04:44.776Z,4.88
2019-02-26T00:05:59.341Z,4.87
2019-02-26T00:06:58.395Z,4.86
2019-02-26T00:08:00.812Z,4.84
2019-02-26T00:09:03.208Z,4.85
2019-02-26T00:09:45.032Z,4.81
2019-02-26T00:10:46.219Z,4.81
2019-02-26T00:11:46.502Z,4.8
2019-02-26T00:12:44.999Z,4.79
2019-02-26T00:13:44.787Z,4.75
2019-02-26T00:14:56.969Z,4.8
2019-02-26T00:15:48.607Z,4.77
2019-02-26T00:16:51.141Z,4.78
2019-02-26T00:17:53.166Z,4.77
2019-02-26T00:18:45.558Z,4.77
2019-02-26T00:19:45.427Z,4.77
2019-02-26T00:20:44.718Z,4.8
2019-02-26T00:21:54.607Z,4.71
2019-02-26T00:22:44.918Z,4.81
2019-02-26T00:23:53.250Z,4.79
2019-02-26T00:24:46.843Z,4.72
2019-02-26T00:25:44.970Z,4.79
2019-02-26T00:26:45.417Z,4.8
2019-02-26T00:27:58.440Z,4.78
2019-02-26T00:28:45.945Z,4.76
2019-02-26T00:29:55.418Z,4.83
2019-02-26T00:30:44.625Z,4.8
2019-02-26T00:31:57.572Z,4.81
2019-02-26T00:32:45.121Z,4.8
2019-02-26T00:33:44.885Z,4.8
2019-02-26T00:34:44.812Z,4.8
2019-02-26T00:35:50.393Z,4.81
2019-02-26T00:36:45.112Z,4.81
2019-02-26T00:37:55.980Z,4.77
2019-02-26T00:38:44.711Z,4.72
2019-02-26T00:39:54.619Z,4.75
2019-02-26T00:40:44.829Z,4.77
2019-02-26T00:41:44.724Z,4.78
2019-02-26T00:42:44.991Z,4.79
2019-02-26T00:43:44.635Z,4.78
2019-02-26T00:44:44.644Z,4.75
2019-02-26T00:45:44.731Z,4.73
2019-02-26T00:46:44.686Z,4.74
2019-02-26T00:47:46.476Z,4.78
2019-02-26T00:48:44.609Z,4.74
2019-02-26T00:49:53.600Z,4.69
2019-02-26T00:50:45.685Z,4.71
2019-02-26T00:51:52.937Z,4.7
2019-02-26T00:52:45.531Z,4.64
2019-02-26T00:53:44.675Z,4.76
2019-02-26T00:54:45.166Z,4.72
2019-02-26T00:55:44.949Z,4.68
2019-02-26T00:56:45.140Z,4.72
2019-02-26T00:57:45.175Z,4.75
2019-02-26T00:58:50.601Z,4.77
2019-02-26T00:59:48.273Z,4.75
2019-02-26T01:00:44.646Z,4.78
2019-02-26T01:01:58.905Z,4.77
2019-02-26T01:02:44.676Z,4.76
2019-02-26T01:03:52.062Z,4.73
2019-02-26T01:04:51.105Z,4.75
2019-02-26T01:05:45.689Z,4.74
2019-02-26T01:06:44.909Z,4.76
2019-02-26T01:07:54.554Z,4.72
2019-02-26T01:08:47.276Z,4.75
2019-02-26T01:09:44.551Z,4.77
2019-02-26T01:10:46.433Z,4.73
2019-02-26T01:11:54.069Z,4.69
2019-02-26T01:12:45.461Z,4.65
2019-02-26T01:13:44.850Z,4.62
2019-02-26T01:14:50.520Z,4.71
2019-02-26T01:15:44.629Z,4.7
2019-02-26T01:16:48.484Z,4.71
2019-02-26T01:17:45.079Z,4.71
2019-02-26T01:18:53.389Z,4.68
2019-02-26T01:19:44.672Z,4.71
2019-02-26T01:20:59.755Z,4.64
2019-02-26T01:21:44.563Z,4.72
2019-02-26T01:22:45.799Z,4.7
2019-02-26T01:23:44.668Z,4.7
2019-02-26T01:24:44.549Z,4.7
2019-02-26T01:25:44.821Z,4.7
2019-02-26T01:26:44.933Z,4.72
2019-02-26T01:27:58.385Z,4.72
2019-02-26T01:29:00.874Z,4.7
2019-02-26T01:29:58.519Z,4.71
2019-02-26T01:30:45.465Z,4.65
2019-02-26T01:31:45.205Z,4.67
2019-02-26T01:32:44.874Z,4.64
2019-02-26T01:33:57.011Z,4.61
2019-02-26T01:34:49.657Z,4.57
2019-02-26T01:35:45.015Z,4.58
2019-02-26T01:36:49.832Z,4.67
2019-02-26T01:37:44.822Z,4.7
2019-02-26T01:38:53.293Z,4.66
2019-02-26T01:39:54.023Z,4.65
2019-02-26T01:40:56.185Z,4.67
2019-02-26T01:41:58.842Z,4.68
2019-02-26T01:43:01.024Z,4.66
2019-02-26T01:43:44.374Z,4.67
2019-02-26T01:44:44.811Z,4.64
2019-02-26T01:45:55.568Z,4.63
2019-02-26T01:46:44.786Z,4.61
2019-02-26T01:47:52.948Z,4.61
2019-02-26T01:48:44.506Z,4.6
2019-02-26T01:49:51.263Z,4.57
2019-02-26T01:50:44.801Z,4.62
2019-02-26T01:51:54.104Z,4.64
2019-02-26T01:52:45.436Z,4.65
2019-02-26T01:53:53.761Z,4.59
2019-02-26T01:54:44.927Z,4.63
2019-02-26T01:55:50.673Z,4.63
2019-02-26T01:56:45.611Z,4.6
2019-02-26T01:57:45.138Z,4.57
2019-02-26T01:58:45.041Z,4.57
2019-02-26T01:59:44.741Z,4.59
2019-02-26T02:00:44.536Z,4.61
2019-02-26T02:01:56.097Z,4.6
2019-02-26T02:02:44.608Z,4.62
2019-02-26T02:03:56.414Z,4.62
2019-02-26T02:04:45.117Z,4.56
2019-02-26T02:05:54.896Z,4.62
2019-02-26T02:06:44.622Z,4.59
2019-02-26T02:07:56.151Z,4.55
2019-02-26T02:08:56.652Z,4.51
2019-02-26T02:09:58.554Z,4.62
2019-02-26T02:10:44.849Z,4.63
2019-02-26T02:11:44.962Z,4.62
2019-02-26T02:12:44.500Z,4.62
2019-02-26T02:13:44.514Z,4.6
2019-02-26T02:14:44.740Z,4.57
2019-02-26T02:15:46.762Z,4.62
2019-02-26T02:16:44.768Z,4.55
2019-02-26T02:17:44.763Z,4.58
2019-02-26T02:18:59.916Z,4.55
2019-02-26T02:19:46.319Z,4.62
2019-02-26T02:20:44.542Z,4.59
2019-02-26T02:21:44.707Z,4.56
2019-02-26T02:22:46.348Z,4.57
2019-02-26T02:23:53.031Z,4.62
2019-02-26T02:24:55.741Z,4.59
2019-02-26T02:25:45.905Z,4.64
2019-02-26T02:26:59.861Z,4.61
2019-02-26T02:28:01.633Z,4.64
2019-02-26T02:28:44.735Z,4.63
2019-02-26T02:29:57.894Z,4.57
2019-02-26T02:30:44.673Z,4.63
2019-02-26T02:31:44.537Z,4.6
2019-02-26T02:33:02.053Z,4.64
2019-02-26T02:33:44.659Z,4.63
2019-02-26T02:34:44.580Z,4.62
2019-02-26T02:35:44.513Z,4.6
2019-02-26T02:36:45.344Z,4.6
2019-02-26T02:37:44.711Z,4.55
2019-02-26T02:38:44.813Z,4.6
2019-02-26T02:39:45.039Z,4.6
2019-02-26T02:40:55.074Z,4.59
2019-02-26T02:41:55.099Z,4.54
2019-02-26T02:42:49.662Z,4.59
2019-02-26T02:43:45.871Z,4.54
2019-02-26T02:44:52.979Z,4.56
2019-02-26T02:45:44.630Z,4.6
2019-02-26T02:46:46.953Z,4.59
2019-02-26T02:47:44.779Z,4.6
2019-02-26T02:48:44.873Z,4.58
2019-02-26T02:49:44.735Z,4.56
2019-02-26T02:50:44.888Z,4.57
2019-02-26T02:51:44.452Z,4.56
2019-02-26T02:52:45.566Z,4.56
2019-02-26T02:53:59.431Z,4.57
2019-02-26T02:54:51.999Z,4.52
2019-02-26T02:55:51.778Z,4.57
2019-02-26T02:56:44.925Z,4.57
2019-02-26T02:58:00.475Z,4.55
2019-02-26T02:58:51.908Z,4.55
2019-02-26T02:59:45.462Z,4.52
2019-02-26T03:01:00.340Z,4.47
2019-02-26T03:01:57.220Z,4.48
2019-02-26T03:02:58.430Z,4.5
2019-02-26T03:04:01.016Z,4.53
2019-02-26T03:04:45.405Z,4.57
2019-02-26T03:05:46.175Z,4.57
2019-02-26T03:06:44.793Z,4.55
2019-02-26T03:07:56.527Z,4.51
2019-02-26T03:08:53.636Z,4.55
2019-02-26T03:09:46.115Z,4.49
2019-02-26T03:10:45.256Z,4.53
2019-02-26T03:11:55.158Z,4.53
2019-02-26T03:13:03.011Z,4.55
2019-02-26T03:13:54.034Z,4.55
2019-02-26T03:14:44.779Z,4.53
2019-02-26T03:15:44.524Z,4.52
2019-02-26T03:16:53.652Z,4.52
2019-02-26T03:17:44.549Z,4.52
2019-02-26T03:18:44.573Z,4.53
2019-02-26T03:19:44.462Z,4.5
2019-02-26T03:20:44.611Z,4.52
2019-02-26T03:21:55.114Z,4.52
2019-02-26T03:22:49.458Z,4.51
2019-02-26T03:23:45.896Z,4.5
2019-02-26T03:24:45.302Z,4.53
2019-02-26T03:25:55.261Z,4.51
2019-02-26T03:26:44.725Z,4.49
2019-02-26T03:27:44.789Z,4.5
2019-02-26T03:28:53.557Z,4.49
2019-02-26T03:30:01.185Z,4.49
2019-02-26T03:30:45.075Z,4.51
2019-02-26T03:31:55.765Z,4.48
2019-02-26T03:33:05.032Z,4.5
2019-02-26T03:33:44.641Z,4.49
2019-02-26T03:34:44.447Z,4.49
2019-02-26T03:35:44.512Z,4.49
2019-02-26T03:36:46.071Z,4.5
2019-02-26T03:37:44.589Z,4.52
2019-02-26T03:39:00.556Z,4.46
2019-02-26T03:39:44.502Z,4.5
2019-02-26T03:40:45.433Z,4.5
2019-02-26T03:41:56.537Z,4.5
2019-02-26T03:42:46.611Z,4.48
2019-02-26T03:43:44.495Z,4.5
2019-02-26T03:44:47.253Z,4.46
2019-02-26T03:45:48.356Z,4.49
2019-02-26T03:46:45.320Z,4.45
2019-02-26T03:47:44.342Z,4.49
2019-02-26T03:48:44.860Z,4.48
2019-02-26T03:49:45.235Z,4.44
2019-02-26T03:50:44.928Z,4.47
2019-02-26T03:51:44.661Z,4.47
2019-02-26T03:52:44.711Z,4.46
2019-02-26T03:53:44.489Z,4.46
2019-02-26T03:54:50.946Z,4.46
2019-02-26T03:55:44.823Z,4.46
2019-02-26T03:56:44.597Z,4.45
2019-02-26T03:58:02.062Z,4.45
2019-02-26T03:58:44.525Z,4.44
2019-02-26T03:59:44.449Z,4.44
2019-02-26T04:00:47.147Z,4.46
2019-02-26T04:01:44.519Z,4.45
2019-02-26T04:02:52.349Z,4.45
2019-02-26T04:03:45.210Z,4.46
2019-02-26T04:05:03.437Z,4.45
2019-02-26T04:05:44.778Z,4.44
2019-02-26T04:06:47.335Z,4.46
2019-02-26T04:07:44.999Z,4.46
2019-02-26T04:08:56.108Z,4.43
2019-02-26T04:09:58.655Z,4.46
2019-02-26T04:10:59.589Z,4.44
2019-02-26T04:11:55.642Z,4.43
2019-02-26T04:12:58.290Z,4.46
2019-02-26T04:13:56.894Z,4.44
2019-02-26T04:14:44.538Z,4.42
2019-02-26T04:15:44.380Z,4.44
2019-02-26T04:16:44.304Z,4.44
2019-02-26T04:17:44.445Z,4.44
2019-02-26T04:18:44.555Z,4.44
2019-02-26T04:19:44.866Z,4.44
2019-02-26T04:20:46.144Z,4.43
2019-02-26T04:21:44.404Z,4.44
2019-02-26T04:22:57.288Z,4.42
2019-02-26T04:23:46.895Z,4.42
2019-02-26T04:24:44.283Z,4.44
2019-02-26T04:25:44.426Z,4.45
2019-02-26T04:26:45.013Z,4.43
2019-02-26T04:27:44.384Z,4.47
2019-02-26T04:28:47.818Z,4.44
2019-02-26T04:29:49.569Z,4.43
2019-02-26T04:30:52.627Z,4.45
2019-02-26T04:31:57.801Z,4.41
2019-02-26T04:32:49.202Z,4.44
2019-02-26T04:33:44.303Z,4.43
2019-02-26T04:34:44.402Z,4.44
2019-02-26T04:35:55.647Z,4.43
2019-02-26T04:36:47.308Z,4.41
2019-02-26T04:37:44.556Z,4.43
2019-02-26T04:38:55.748Z,4.43
2019-02-26T04:39:47.879Z,4.37
2019-02-26T04:40:44.340Z,4.41
2019-02-26T04:41:44.321Z,4.43
2019-02-26T04:42:46.335Z,4.41
2019-02-26T04:43:44.288Z,4.39
2019-02-26T04:45:04.871Z,4.4
2019-02-26T04:45:44.422Z,4.39
2019-02-26T04:46:44.457Z,4.38
2019-02-26T04:48:00.757Z,4.41
2019-02-26T04:48:44.548Z,4.36
2019-02-26T04:49:44.774Z,4.36
2019-02-26T04:50:44.956Z,4.39
2019-02-26T04:51:50.718Z,4.37
2019-02-26T04:52:44.345Z,4.35
2019-02-26T04:53:44.714Z,4.35
2019-02-26T04:54:44.726Z,4.43
2019-02-26T04:55:45.156Z,4.42
2019-02-26T04:56:51.183Z,4.38
2019-02-26T04:57:54.412Z,4.36
2019-02-26T04:58:48.027Z,4.43
2019-02-26T04:59:44.498Z,4.45
2019-02-26T05:00:45.592Z,4.45
2019-02-26T05:01:57.615Z,4.45
2019-02-26T05:02:44.262Z,4.43
2019-02-26T05:03:44.287Z,4.4
2019-02-26T05:04:46.116Z,4.38
2019-02-26T05:05:44.275Z,4.34
2019-02-26T05:06:44.557Z,4.36
2019-02-26T05:07:50.197Z,4.38
2019-02-26T05:08:44.555Z,4.38
2019-02-26T05:10:02.112Z,4.39
2019-02-26T05:10:59.525Z,4.36
2019-02-26T05:11:44.342Z,4.33
2019-02-26T05:12:44.310Z,4.34
2019-02-26T05:13:45.120Z,4.39
2019-02-26T05:14:44.333Z,4.43
2019-02-26T05:15:44.557Z,4.44
2019-02-26T05:16:44.278Z,4.46
2019-02-26T05:17:44.458Z,4.47
2019-02-26T05:18:58.723Z,4.46
2019-02-26T05:19:52.032Z,4.41
2019-02-26T05:20:48.771Z,4.44
2019-02-26T05:21:46.076Z,4.45
2019-02-26T05:22:44.411Z,4.45
2019-02-26T05:23:58.243Z,4.41
2019-02-26T05:24:53.028Z,4.38
2019-02-26T05:25:45.143Z,4.38
2019-02-26T05:26:44.440Z,4.35
2019-02-26T05:27:51.150Z,4.41
2019-02-26T05:28:51.774Z,4.42
2019-02-26T05:29:54.988Z,4.43
2019-02-26T05:30:51.526Z,4.41
2019-02-26T05:31:44.379Z,4.41
2019-02-26T05:32:44.362Z,4.44
2019-02-26T05:34:00.011Z,4.41
2019-02-26T05:34:51.050Z,4.44
2019-02-26T05:35:51.750Z,4.44
2019-02-26T05:36:46.688Z,4.44
2019-02-26T05:37:44.444Z,4.42
2019-02-26T05:38:44.452Z,4.41
2019-02-26T05:39:54.901Z,4.39
2019-02-26T05:40:56.032Z,4.4
2019-02-26T05:41:46.050Z,4.42
2019-02-26T05:42:44.696Z,4.41
2019-02-26T05:44:04.686Z,4.42
2019-02-26T05:44:44.497Z,4.41
2019-02-26T05:45:44.259Z,4.41
2019-02-26T05:47:00.948Z,4.43
2019-02-26T05:47:59.118Z,4.42
2019-02-26T05:48:51.295Z,4.42
2019-02-26T05:49:46.170Z,4.41
2019-02-26T05:50:45.034Z,4.42
2019-02-26T05:51:46.062Z,4.41
2019-02-26T05:52:44.287Z,4.41
2019-02-26T05:53:44.675Z,4.41
2019-02-26T05:54:44.264Z,4.39
2019-02-26T05:55:56.103Z,4.39
2019-02-26T05:56:50.197Z,4.38
2019-02-26T05:57:44.489Z,4.39
2019-02-26T05:58:47.379Z,4.37
2019-02-26T05:59:44.251Z,4.37
2019-02-26T06:00:44.610Z,4.38
2019-02-26T06:01:58.498Z,4.37
2019-02-26T06:02:51.262Z,4.38
2019-02-26T06:03:52.206Z,4.4
2019-02-26T06:04:47.043Z,4.4
2019-02-26T06:06:00.560Z,4.39
2019-02-26T06:06:44.424Z,4.39
2019-02-26T06:07:44.433Z,4.36
2019-02-26T06:08:44.453Z,4.34
2019-02-26T06:09:58.753Z,4.34
2019-02-26T06:10:44.562Z,4.33
2019-02-26T06:11:50.301Z,4.39
2019-02-26T06:12:46.948Z,4.39
2019-02-26T06:13:44.424Z,4.4
2019-02-26T06:14:44.396Z,4.39
2019-02-26T06:15:44.285Z,4.39
2019-02-26T06:16:56.057Z,4.38
2019-02-26T06:17:56.103Z,4.38
2019-02-26T06:18:54.584Z,4.37
2019-02-26T06:19:45.380Z,4.36
2019-02-26T06:20:46.068Z,4.37
2019-02-26T06:21:56.752Z,4.36
2019-02-26T06:22:45.016Z,4.37
2019-02-26T06:23:44.267Z,4.36
2019-02-26T06:24:44.345Z,4.35
2019-02-26T06:25:44.242Z,4.35
2019-02-26T06:26:45.781Z,4.35
2019-02-26T06:27:44.679Z,4.37
2019-02-26T06:28:53.113Z,4.36
2019-02-26T06:29:44.491Z,4.35
2019-02-26T06:30:45.022Z,4.34
2019-02-26T06:31:49.629Z,4.32
2019-02-26T06:32:45.080Z,4.3
2019-02-26T06:33:48.048Z,4.31
2019-02-26T06:34:43.959Z,4.31
2019-02-26T06:35:43.958Z,4.34
2019-02-26T06:36:53.401Z,4.38
2019-02-26T06:37:43.959Z,4.37
2019-02-26T06:38:43.963Z,4.32
2019-02-26T06:39:44.309Z,4.32
2019-02-26T06:40:51.565Z,4.32
2019-02-26T06:41:51.409Z,4.3
2019-02-26T06:42:44.205Z,4.35
2019-02-26T06:43:55.317Z,4.31
2019-02-26T06:44:51.589Z,4.31
2019-02-26T06:45:48.002Z,4.3
2019-02-26T06:46:44.218Z,4.31
2019-02-26T06:47:58.223Z,4.36
2019-02-26T06:48:44.396Z,4.34
2019-02-26T06:49:52.863Z,4.33
2019-02-26T06:50:44.319Z,4.41
2019-02-26T06:51:54.422Z,4.41
2019-02-26T06:52:51.002Z,4.42
2019-02-26T06:53:59.137Z,4.41
2019-02-26T06:55:05.263Z,4.41
2019-02-26T06:55:44.491Z,4.41
2019-02-26T06:56:52.942Z,4.43
2019-02-26T06:57:55.277Z,4.43
2019-02-26T06:58:47.682Z,4.44
2019-02-26T06:59:44.077Z,4.45
2019-02-26T07:00:55.717Z,4.44
2019-02-26T07:01:44.089Z,4.43
2019-02-26T07:02:46.560Z,4.43
2019-02-26T07:03:44.168Z,4.46
2019-02-26T07:04:44.188Z,4.44
2019-02-26T07:05:46.758Z,4.46
2019-02-26T07:06:44.197Z,4.46
2019-02-26T07:07:45.943Z,4.46
2019-02-26T07:08:53.738Z,4.45
2019-02-26T07:09:44.350Z,4.46
2019-02-26T07:10:44.441Z,4.46
2019-02-26T07:11:44.875Z,4.48
2019-02-26T07:12:50.743Z,4.46
2019-02-26T07:13:46.667Z,4.47
2019-02-26T07:14:58.258Z,4.43
2019-02-26T07:15:46.122Z,4.46
2019-02-26T07:16:44.272Z,4.46
2019-02-26T07:17:46.567Z,4.44
2019-02-26T07:18:44.106Z,4.44
2019-02-26T07:19:45.007Z,4.42
2019-02-26T07:21:00.234Z,4.48
2019-02-26T07:21:53.161Z,4.47
2019-02-26T07:22:51.809Z,4.51
2019-02-26T07:23:44.036Z,4.47
2019-02-26T07:24:54.091Z,4.51
2019-02-26T07:25:44.408Z,4.51
2019-02-26T07:26:48.559Z,4.53
2019-02-26T07:27:44.558Z,4.54
2019-02-26T07:28:51.213Z,4.55
2019-02-26T07:29:52.572Z,4.56
2019-02-26T07:30:47.192Z,4.57
2019-02-26T07:31:44.383Z,4.59
2019-02-26T07:32:48.554Z,4.59
2019-02-26T07:33:44.286Z,4.59
2019-02-26T07:34:52.368Z,4.57
2019-02-26T07:35:44.480Z,4.56
2019-02-26T07:36:52.679Z,4.57
2019-02-26T07:37:44.199Z,4.54
2019-02-26T07:38:56.688Z,4.55
2019-02-26T07:39:51.754Z,4.62
2019-02-26T07:40:44.745Z,4.63
2019-02-26T07:41:54.475Z,4.6
2019-02-26T07:42:49.795Z,4.57
2019-02-26T07:43:54.972Z,4.57
2019-02-26T07:44:44.349Z,4.63
2019-02-26T07:45:44.587Z,4.6
2019-02-26T07:46:45.893Z,4.57
2019-02-26T07:47:45.513Z,4.63
2019-02-26T07:49:01.878Z,4.66
2019-02-26T07:49:44.873Z,4.67
2019-02-26T07:50:50.954Z,4.68
2019-02-26T07:51:45.040Z,4.71
2019-02-26T07:52:59.381Z,4.66
2019-02-26T07:54:00.245Z,4.68
2019-02-26T07:54:52.050Z,4.7
2019-02-26T07:55:44.390Z,4.73
2019-02-26T07:56:43.991Z,4.78
2019-02-26T07:57:53.451Z,4.79
2019-02-26T07:58:44.453Z,4.79
2019-02-26T07:59:50.427Z,4.79
2019-02-26T08:00:52.559Z,4.81
2019-02-26T08:01:49.874Z,4.74
2019-02-26T08:02:43.993Z,4.73
2019-02-26T08:03:53.411Z,4.74
2019-02-26T08:04:44.091Z,4.72
2019-02-26T08:05:44.205Z,4.77
2019-02-26T08:06:43.987Z,4.76
2019-02-26T08:07:56.681Z,4.85
2019-02-26T08:08:49.116Z,4.85
2019-02-26T08:09:44.213Z,4.83
2019-02-26T08:10:53.342Z,4.81
2019-02-26T08:11:49.305Z,4.84
2019-02-26T08:12:44.220Z,4.88
2019-02-26T08:13:44.286Z,4.89
2019-02-26T08:14:50.347Z,4.86
2019-02-26T08:15:44.459Z,4.9
2019-02-26T08:16:44.158Z,4.88
2019-02-26T08:18:02.929Z,4.85
2019-02-26T08:18:44.196Z,4.86
2019-02-26T08:19:49.631Z,4.87
2019-02-26T08:20:44.075Z,4.96
2019-02-26T08:21:56.763Z,4.98
2019-02-26T08:22:44.019Z,5
2019-02-26T08:23:52.908Z,5
2019-02-26T08:24:57.909Z,4.96
2019-02-26T08:25:44.106Z,4.97
2019-02-26T08:26:49.906Z,5.03
2019-02-26T08:27:44.344Z,5.04
2019-02-26T08:28:48.388Z,5.04
2019-02-26T08:29:44.069Z,5.05
2019-02-26T08:30:56.774Z,5.06
2019-02-26T08:31:56.370Z,5.11
2019-02-26T08:33:01.789Z,5.1
2019-02-26T08:33:51.995Z,5.13
2019-02-26T08:34:45.802Z,5.09
2019-02-26T08:35:44.703Z,5.11
2019-02-26T08:36:47.055Z,5.13
2019-02-26T08:37:44.127Z,5.12
2019-02-26T08:38:45.791Z,5.09
2019-02-26T08:39:44.209Z,5.15
2019-02-26T08:40:44.244Z,5.14
2019-02-26T08:41:44.534Z,5.13
2019-02-26T08:42:44.448Z,5.11
2019-02-26T08:43:56.936Z,5.1
2019-02-26T08:44:58.185Z,5.16
2019-02-26T08:45:45.780Z,5.16
2019-02-26T08:46:49.195Z,5.2
2019-02-26T08:47:44.060Z,5.21
2019-02-26T08:48:51.013Z,5.22
2019-02-26T08:49:47.726Z,5.22
2019-02-26T08:50:46.608Z,5.19
2019-02-26T08:51:44.301Z,5.2
2019-02-26T08:52:58.787Z,5.14
2019-02-26T08:53:57.215Z,5.15
2019-02-26T08:54:44.114Z,5.16
2019-02-26T08:55:44.110Z,5.24
2019-02-26T08:56:44.044Z,5.27
2019-02-26T08:57:44.645Z,5.22
2019-02-26T08:58:45.635Z,5.27
2019-02-26T08:59:54.794Z,5.25
2019-02-26T09:00:44.204Z,5.26
2019-02-26T09:01:44.371Z,5.29
2019-02-26T09:02:56.908Z,5.29
2019-02-26T09:03:44.078Z,5.24
2019-02-26T09:04:48.144Z,5.25
2019-02-26T09:05:44.284Z,5.29
2019-02-26T09:06:44.047Z,5.38
2019-02-26T09:07:50.845Z,5.44
2019-02-26T09:08:44.751Z,5.41
2019-02-26T09:09:57.631Z,5.41
2019-02-26T09:10:48.887Z,5.41
2019-02-26T09:11:45.161Z,5.45
2019-02-26T09:12:52.520Z,5.46
2019-02-26T09:13:44.204Z,5.45
2019-02-26T09:14:50.220Z,5.45
2019-02-26T09:15:44.577Z,5.43
2019-02-26T09:17:00.221Z,5.47
2019-02-26T09:17:44.744Z,5.46
2019-02-26T09:18:43.691Z,5.48
2019-02-26T09:19:44.334Z,5.44
2019-02-26T09:20:45.728Z,5.45
2019-02-26T09:21:55.011Z,5.48
2019-02-26T09:23:00.968Z,5.52
2019-02-26T09:24:01.891Z,5.5
2019-02-26T09:24:44.214Z,5.53
2019-02-26T09:26:02.106Z,5.54
2019-02-26T09:26:44.217Z,5.55
2019-02-26T09:27:44.349Z,5.55
2019-02-26T09:28:57.257Z,5.57
2019-02-26T09:29:51.628Z,5.55
2019-02-26T09:30:44.147Z,5.57
2019-02-26T09:31:45.707Z,5.6
2019-02-26T09:32:45.225Z,5.58
2019-02-26T09:33:45.779Z,5.6
2019-02-26T09:34:44.089Z,5.57
2019-02-26T09:35:54.963Z,5.66
2019-02-26T09:37:00.191Z,5.61
2019-02-26T09:37:58.437Z,5.65
2019-02-26T09:38:51.625Z,5.66
2019-02-26T09:39:44.096Z,5.63
2019-02-26T09:40:56.542Z,5.64
2019-02-26T09:41:45.818Z,5.68
2019-02-26T09:43:00.280Z,5.64
2019-02-26T09:43:48.367Z,5.63
2019-02-26T09:44:44.922Z,5.69
2019-02-26T09:45:53.031Z,5.62
2019-02-26T09:46:44.321Z,5.64
2019-02-26T09:47:58.242Z,5.62
2019-02-26T09:48:46.304Z,5.68
2019-02-26T09:49:43.836Z,5.67
2019-02-26T09:50:48.927Z,5.67
2019-02-26T09:51:44.127Z,5.71
2019-02-26T09:52:59.038Z,5.7
2019-02-26T09:53:44.341Z,5.73
2019-02-26T09:54:55.316Z,5.76
2019-02-26T09:55:44.117Z,5.75
2019-02-26T09:56:44.114Z,5.8
2019-02-26T09:57:44.337Z,5.75
2019-02-26T09:58:51.101Z,5.7
2019-02-26T09:59:43.794Z,5.75
2019-02-26T10:00:54.487Z,5.77
2019-02-26T10:01:43.824Z,5.78
2019-02-26T10:02:52.326Z,5.75
2019-02-26T10:03:43.823Z,5.82
2019-02-26T10:04:54.499Z,5.74
2019-02-26T10:05:58.007Z,5.79
2019-02-26T10:06:47.707Z,5.74
2019-02-26T10:07:44.191Z,5.73
2019-02-26T10:08:56.184Z,5.77
2019-02-26T10:09:48.750Z,5.74
2019-02-26T10:10:45.423Z,5.77
2019-02-26T10:11:51.827Z,5.77
2019-02-26T10:12:44.137Z,5.75
2019-02-26T10:13:51.409Z,5.77
2019-02-26T10:14:43.961Z,5.78
2019-02-26T10:15:45.064Z,5.76
2019-02-26T10:16:56.864Z,5.79
2019-02-26T10:17:45.465Z,5.8
2019-02-26T10:18:56.906Z,5.77
2019-02-26T10:19:43.860Z,5.79
2019-02-26T10:20:54.761Z,5.85
2019-02-26T10:21:45.167Z,5.74
2019-02-26T10:22:47.354Z,5.72
2019-02-26T10:23:59.377Z,5.68
2019-02-26T10:24:45.617Z,5.72
2019-02-26T10:25:45.456Z,5.72
2019-02-26T10:26:45.640Z,5.72
2019-02-26T10:27:48.018Z,5.79
2019-02-26T10:29:05.293Z,5.74
2019-02-26T10:29:50.108Z,5.79
2019-02-26T10:30:44.249Z,5.79
2019-02-26T10:31:43.769Z,5.76
2019-02-26T10:32:47.196Z,5.75
2019-02-26T10:33:50.980Z,5.78
2019-02-26T10:34:44.035Z,5.82
2019-02-26T10:35:50.091Z,5.8
2019-02-26T10:36:52.050Z,5.79
2019-02-26T10:37:44.189Z,5.78
2019-02-26T10:38:44.051Z,5.76
2019-02-26T10:39:55.115Z,5.73
2019-02-26T10:41:02.027Z,5.85
2019-02-26T10:41:46.951Z,5.85
2019-02-26T10:42:43.753Z,5.79
2019-02-26T10:43:44.113Z,5.77
2019-02-26T10:44:44.096Z,5.68
2019-02-26T10:45:55.012Z,5.79
2019-02-26T10:46:44.726Z,5.82
2019-02-26T10:47:44.358Z,5.78
2019-02-26T10:48:53.006Z,5.74
2019-02-26T10:49:56.577Z,5.77
2019-02-26T10:50:52.178Z,5.79
2019-02-26T10:51:44.134Z,5.85
2019-02-26T10:52:43.782Z,5.83
2019-02-26T10:53:44.193Z,5.82
2019-02-26T10:54:46.827Z,5.81
2019-02-26T10:55:43.915Z,5.79
2019-02-26T10:56:45.145Z,5.84
2019-02-26T10:57:44.120Z,5.86
2019-02-26T10:58:45.572Z,5.97
2019-02-26T10:59:45.667Z,5.98
2019-02-26T11:00:44.370Z,5.95
2019-02-26T11:01:44.087Z,5.95
2019-02-26T11:02:54.512Z,5.96
2019-02-26T11:03:55.323Z,5.99
2019-02-26T11:04:55.647Z,5.92
2019-02-26T11:05:52.543Z,5.89
2019-02-26T11:06:47.194Z,5.91
2019-02-26T11:07:43.842Z,5.9
2019-02-26T11:08:44.078Z,6
2019-02-26T11:09:58.739Z,6.02
2019-02-26T11:10:52.693Z,5.93
2019-02-26T11:11:43.803Z,6.02
2019-02-26T11:12:59.355Z,5.96
2019-02-26T11:13:53.972Z,5.96
2019-02-26T11:14:44.536Z,5.96
2019-02-26T11:15:44.062Z,5.95
2019-02-26T11:16:43.820Z,6.01
2019-02-26T11:17:56.048Z,5.95
2019-02-26T11:18:47.911Z,5.99
2019-02-26T11:19:43.885Z,6.01
2019-02-26T11:20:59.070Z,6.06
2019-02-26T11:21:43.673Z,6.06
2019-02-26T11:22:52.196Z,6.02
2019-02-26T11:23:46.625Z,6
2019-02-26T11:24:44.116Z,6.05
2019-02-26T11:25:43.727Z,6.01
2019-02-26T11:26:44.554Z,5.97
2019-02-26T11:27:48.686Z,6.05
2019-02-26T11:28:48.260Z,6.1
2019-02-26T11:29:43.888Z,6.09
2019-02-26T11:30:56.772Z,6.19
2019-02-26T11:31:49.901Z,6.17
2019-02-26T11:32:45.396Z,6.17
2019-02-26T11:33:44.047Z,6.19
2019-02-26T11:34:43.969Z,6.19
2019-02-26T11:35:51.736Z,6.2
2019-02-26T11:36:44.007Z,6.2
2019-02-26T11:37:58.239Z,6.22
2019-02-26T11:38:47.302Z,6.17
2019-02-26T11:39:43.702Z,6.09
2019-02-26T11:40:43.678Z,6.16
2019-02-26T11:41:43.746Z,6.22
2019-02-26T11:42:51.435Z,6.21
2019-02-26T11:43:44.110Z,6.26
2019-02-26T11:44:43.805Z,6.21
2019-02-26T11:45:45.521Z,6.15
2019-02-26T11:46:56.691Z,6.18
2019-02-26T11:47:44.059Z,6.19
2019-02-26T11:48:55.488Z,6.18
2019-02-26T11:49:46.971Z,6.26
2019-02-26T11:50:45.325Z,6.22
2019-02-26T11:51:43.982Z,6.22
2019-02-26T11:52:44.068Z,6.16
2019-02-26T11:53:46.454Z,6.2
2019-02-26T11:54:44.865Z,6.22
2019-02-26T11:55:45.507Z,6.14
2019-02-26T11:56:52.807Z,6.09
2019-02-26T11:57:49.994Z,6.09
2019-02-26T11:58:43.915Z,6.15
2019-02-26T11:59:43.695Z,6.19
2019-02-26T12:00:51.308Z,6.05
2019-02-26T12:01:43.695Z,6.02
2019-02-26T12:02:44.092Z,6.03
2019-02-26T12:03:44.222Z,6.08
2019-02-26T12:04:43.965Z,6.07
2019-02-26T12:05:44.614Z,6.01
2019-02-26T12:06:43.780Z,6.07
2019-02-26T12:07:43.632Z,6.09
2019-02-26T12:08:50.195Z,5.95
2019-02-26T12:09:44.708Z,5.98
2019-02-26T12:10:43.925Z,6.03
2019-02-26T12:11:44.015Z,6.07
2019-02-26T12:12:43.839Z,6.11
2019-02-26T12:13:53.305Z,6.21
2019-02-26T12:14:48.789Z,6.16
2019-02-26T12:15:43.815Z,6.13
2019-02-26T12:16:44.245Z,6.1
2019-02-26T12:17:43.642Z,6.06
2019-02-26T12:18:47.204Z,6.13
2019-02-26T12:19:43.809Z,6.13
2019-02-26T12:20:49.008Z,6.07
2019-02-26T12:21:43.642Z,6.13
2019-02-26T12:22:55.556Z,6.1
2019-02-26T12:23:46.988Z,6.07
2019-02-26T12:24:43.760Z,6.11
2019-02-26T12:25:44.062Z,6.15
2019-02-26T12:26:54.869Z,6.23
2019-02-26T12:27:48.398Z,6.09
2019-02-26T12:28:44.285Z,6.12
2019-02-26T12:29:54.822Z,6.14
2019-02-26T12:30:47.061Z,6.11
2019-02-26T12:31:45.465Z,6.15
2019-02-26T12:32:55.320Z,6.07
2019-02-26T12:33:45.446Z,6.03
2019-02-26T12:34:51.617Z,6.03
2019-02-26T12:35:44.088Z,6.04
2019-02-26T12:36:44.364Z,6.05
2019-02-26T12:38:17.204Z,6.03
2019-02-26T12:38:44.208Z,6.06
2019-02-26T12:39:57.996Z,6.13
2019-02-26T12:40:53.601Z,6.24
2019-02-26T12:41:48.330Z,6.14
2019-02-26T12:42:43.904Z,6.14
2019-02-26T12:43:46.683Z,6.11
2019-02-26T12:44:45.741Z,6.17
2019-02-26T12:45:44.312Z,6.27
2019-02-26T12:47:00.342Z,6.12
2019-02-26T12:47:55.426Z,6.19
2019-02-26T12:48:50.544Z,6.07
2019-02-26T12:49:45.386Z,6.04
2019-02-26T12:50:43.880Z,6.07
2019-02-26T12:51:43.870Z,6.13
2019-02-26T12:52:57.311Z,6.17
2019-02-26T12:53:50.292Z,6.13
2019-02-26T12:54:43.706Z,6.18
2019-02-26T12:55:44.025Z,6.1
2019-02-26T12:56:43.707Z,6.14
2019-02-26T12:57:59.613Z,6.27
2019-02-26T12:58:54.852Z,6.23
2019-02-26T12:59:44.061Z,6.21
2019-02-26T13:00:44.425Z,6.19
2019-02-26T13:01:52.164Z,6.18
2019-02-26T13:02:52.628Z,6.2
2019-02-26T13:03:55.631Z,6.22
2019-02-26T13:04:53.672Z,6.23
2019-02-26T13:05:51.935Z,6.24
2019-02-26T13:06:52.266Z,6.21
2019-02-26T13:07:44.064Z,6.14
2019-02-26T13:08:51.058Z,6.18
2019-02-26T13:10:58.586Z,6.14
2019-02-26T13:12:03.066Z,6.19
2019-02-26T13:13:07.484Z,6.22
2019-02-26T13:14:43.625Z,6.12
2019-02-26T13:15:45.398Z,6.05
2019-02-26T13:17:00.287Z,6.06
2019-02-26T13:17:54.769Z,6.08
2019-02-26T13:19:44.154Z,6.03
2019-02-26T13:20:43.360Z,6.03
2019-02-26T13:21:03.613Z,6.03
2019-02-26T13:21:44.079Z,6.14
2019-02-26T13:22:46.218Z,6.07
2019-02-26T13:23:45.395Z,6.13